Accueil
METAR-TAF:

METAR-TAF

Aéroports :

Salon-de-Provence, France

Base aérienne 701 Salon-de-Provence

latitude: 43-36N, longitude: 005-06E, altitude: 59 m

Observation

Le bulletin a été fait il y a 24 minutes, à 18:00 UTC
Vent 12 kt de nord-ouest, variant entre ouest et nord
Température 6°C
Humidité 65%
Pression 1016 hPa
Visibilité 10 km ou plus
pas de nuages en-dessous de 1500 mètres et pas de cumulonimbus.

METAR: LFMY 161800Z AUTO 31012KT 270V360 CAVOK 06/M00 Q1016

Heure: 19:24 (18:24 UTC)

Prévision

Le bulletin a été fait il y a 4 heures et 1 minutes, à 14:23 UTC
Prévision valable du 16 à 15 UTC au 17 à 15 UTC
Vent 20 kt de nord/nord-ouest avec des rafales jusqu'à 35 kt
Visibilité 10 km ou plus
pas de nuages en-dessous de 1500 mètres et pas de cumulonimbus.

TAF: LFMY 161423Z 1615/1715 34020G35KT CAVOK

Observations et prévisions météorologiques de plus de 4000 aéroports (messages METAR et TAF).

Les stations disponibles sont représentées par des disques jaunes et rouges sur la carte.

Passer la souris dessus pour voir le nom de la station.

Cliquer dessus pour voir les observations et prévisions météorologiques.

Pour changer de carte: cliquez sur les boutons verts avec une croix noire pour zoomer, sur le bouton vert avec un tiret pour effectuer un zoom arrière, ou sur les flèches vertes pour les cartes adjacentes.


METAR-TAF: